Framingham, MA (01705)

11:22 PM EST on January 26, 2015 (GMT -0500)
Garden-In-The-Woods | Change Station
CLOSE
Current Station
Personal Weather Station
Location: Framingham, MA
Elevation: 193 ft
Nearby Weather Stations
Active Advisory: Blizzard Warning Active Notice: Public Information Statement

Elev 193 ft 42.34 °N, 71.42 °W | Updated 0 second ago

Snow
Snow
15.4 °F
Feels Like -3 °F
N
24.0
Wind Variable Wind from North
Gusts 24.0 mph

Today
High -- | Low -- °F
--% Chance of Precip.
Yesterday
High -- | Low -- °F
Precip. -- in
7:05 AM 4:51 PM
Waxing Crescent, 50% visible
Pressure 29.86 in
Visibility 1.5 miles
Clouds Overcast 2300 ft
Windchill -3 °F
Dew Point 12 °F
Humidity 88%
Rainfall 0.02 in
Snow Depth Not available.
UV 0 out of 12
Pollen .10 out of 12
Air Quality Not available.
Flu Activity Not available.
SPECI KBED 270415Z 01020G26KT 1 1/2SM -SN BR OVC023 M09/M12 A2986 RMK AO2 PK WND 01028/0405 PRESFR P0000 T10941117

More Conditions Fewer Conditions

Pressure 29.86 in
Visibility 1.5 miles
Clouds Overcast 2300 ft
Windchill -3 °F
Dew Point 12 °F
Humidity 88%
Rainfall 0.02 in
Snow Depth Not available.
UV 0 out of 12
Pollen .10 out of 12
Air Quality Not available.
Flu Activity Not available.
SPECI KBED 270415Z 01020G26KT 1 1/2SM -SN BR OVC023 M09/M12 A2986 RMK AO2 PK WND 01028/0405 PRESFR P0000 T10941117

More Conditions Fewer Conditions

10-Day Weather Forecast

Almanac

Astronomy

Jan. 26, 2015 Rise Set
Actual Time
Civil Twilight
Nautical Twilight
Astronomical Twilight
Moon
Length of Visible Light
Length of Day
Tomorrow will be .
, % of the Moon is Illuminated

Today's Extremes

State Highs State Lows

Community

WunderPhotos

Upload Photos

1,790,525 photos uploaded!

WunderBlogs® & News

Nearby

Air Quality

  Air Quality AQ Index Pollutant
Not available.

Snow Depth

Station Depth Elevation

Earthquake Activity

City Distance Mag. Time & Date
Minimum magnitude displayed is 2.5.

Coastal Water Temperatures

Place Temperature

Nearby Weather Stations